sensor_id;sensor_type;location;lat;lon;timestamp;pressure;altitude;pressure_sealevel;temperature;humidity
11268;BME280;72685;47.474;9.416;2023-09-08T00:00:29;95773.25;;;18.15;100.00
11268;BME280;72685;47.474;9.416;2023-09-08T00:02:55;95773.69;;;18.17;100.00
11268;BME280;72685;47.474;9.416;2023-09-08T00:05:20;95772.81;;;18.13;99.97
11268;BME280;72685;47.474;9.416;2023-09-08T00:07:46;95773.50;;;18.10;100.00
11268;BME280;72685;47.474;9.416;2023-09-08T00:10:11;95767.66;;;18.08;100.00
11268;BME280;72685;47.474;9.416;2023-09-08T00:12:37;95764.25;;;18.11;99.43
11268;BME280;72685;47.474;9.416;2023-09-08T00:15:03;95772.81;;;18.13;98.78
11268;BME280;72685;47.474;9.416;2023-09-08T00:17:29;95766.94;;;17.95;100.00
11268;BME280;72685;47.474;9.416;2023-09-08T00:19:57;95765.25;;;17.90;100.00
11268;BME280;72685;47.474;9.416;2023-09-08T00:22:22;95764.56;;;17.93;100.00
11268;BME280;72685;47.474;9.416;2023-09-08T00:24:47;95766.41;;;17.89;100.00
11268;BME280;72685;47.474;9.416;2023-09-08T00:27:13;95761.13;;;17.81;100.00
11268;BME280;72685;47.474;9.416;2023-09-08T00:29:39;95754.75;;;17.73;100.00
11268;BME280;72685;47.474;9.416;2023-09-08T00:32:04;95760.28;;;17.65;100.00
11268;BME280;72685;47.474;9.416;2023-09-08T00:34:30;95760.84;;;17.70;100.00
11268;BME280;72685;47.474;9.416;2023-09-08T00:36:56;95753.63;;;17.62;100.00
11268;BME280;72685;47.474;9.416;2023-09-08T00:39:21;95751.97;;;17.58;100.00
11268;BME280;72685;47.474;9.416;2023-09-08T00:41:46;95745.78;;;17.57;100.00
11268;BME280;72685;47.474;9.416;2023-09-08T00:44:12;95745.31;;;17.55;100.00
11268;BME280;72685;47.474;9.416;2023-09-08T00:46:38;95745.66;;;17.54;100.00
11268;BME280;72685;47.474;9.416;2023-09-08T00:49:05;95747.25;;;17.42;100.00
11268;BME280;72685;47.474;9.416;2023-09-08T00:51:31;95739.59;;;17.44;100.00
11268;BME280;72685;47.474;9.416;2023-09-08T00:53:56;95740.72;;;17.43;100.00
11268;BME280;72685;47.474;9.416;2023-09-08T00:56:22;95744.66;;;17.46;100.00
11268;BME280;72685;47.474;9.416;2023-09-08T00:58:48;95735.69;;;17.42;100.00
11268;BME280;72685;47.474;9.416;2023-09-08T01:01:13;95737.13;;;17.39;100.00
11268;BME280;72685;47.474;9.416;2023-09-08T01:03:39;95736.34;;;17.39;100.00
11268;BME280;72685;47.474;9.416;2023-09-08T01:06:05;95741.19;;;17.33;100.00
11268;BME280;72685;47.474;9.416;2023-09-08T01:08:31;95742.00;;;17.34;100.00
11268;BME280;72685;47.474;9.416;2023-09-08T01:10:56;95748.97;;;17.35;100.00
11268;BME280;72685;47.474;9.416;2023-09-08T01:13:22;95742.00;;;17.34;100.00
11268;BME280;72685;47.474;9.416;2023-09-08T01:15:49;95738.59;;;17.37;100.00
11268;BME280;72685;47.474;9.416;2023-09-08T01:18:14;95735.09;;;17.36;100.00
11268;BME280;72685;47.474;9.416;2023-09-08T01:26:17;95745.00;;;17.44;100.00
11268;BME280;72685;47.474;9.416;2023-09-08T01:28:45;95743.53;;;17.47;100.00
11268;BME280;72685;47.474;9.416;2023-09-08T01:31:10;95740.72;;;17.43;100.00
11268;BME280;72685;47.474;9.416;2023-09-08T01:33:36;95741.84;;;17.42;100.00
11268;BME280;72685;47.474;9.416;2023-09-08T01:36:02;95738.56;;;17.49;100.00
11268;BME280;72685;47.474;9.416;2023-09-08T01:38:28;95738.66;;;17.53;100.00
11268;BME280;72685;47.474;9.416;2023-09-08T01:40:53;95735.41;;;17.59;100.00
11268;BME280;72685;47.474;9.416;2023-09-08T01:43:18;95734.03;;;17.65;100.00
11268;BME280;72685;47.474;9.416;2023-09-08T01:45:44;95735.88;;;17.61;100.00
11268;BME280;72685;47.474;9.416;2023-09-08T01:48:09;95733.94;;;17.62;100.00
11268;BME280;72685;47.474;9.416;2023-09-08T01:50:35;95738.31;;;17.66;100.00
11268;BME280;72685;47.474;9.416;2023-09-08T01:53:00;95745.22;;;17.52;100.00
11268;BME280;72685;47.474;9.416;2023-09-08T01:55:25;95739.72;;;17.48;100.00
11268;BME280;72685;47.474;9.416;2023-09-08T01:57:51;95741.72;;;17.51;100.00
11268;BME280;72685;47.474;9.416;2023-09-08T02:00:16;95747.72;;;17.44;100.00
11268;BME280;72685;47.474;9.416;2023-09-08T02:02:41;95742.19;;;17.41;100.00
11268;BME280;72685;47.474;9.416;2023-09-08T02:05:07;95748.63;;;17.36;100.00
11268;BME280;72685;47.474;9.416;2023-09-08T02:07:33;95739.03;;;17.39;100.00
11268;BME280;72685;47.474;9.416;2023-09-08T02:09:58;95734.41;;;17.39;100.00
11268;BME280;72685;47.474;9.416;2023-09-08T02:12:24;95748.50;;;17.45;100.00
11268;BME280;72685;47.474;9.416;2023-09-08T02:14:49;95744.31;;;17.48;100.00
11268;BME280;72685;47.474;9.416;2023-09-08T02:17:15;95738.03;;;17.43;100.00
11268;BME280;72685;47.474;9.416;2023-09-08T02:19:40;95736.53;;;17.46;100.00
11268;BME280;72685;47.474;9.416;2023-09-08T02:22:05;95732.63;;;17.43;100.00
11268;BME280;72685;47.474;9.416;2023-09-08T02:24:31;95724.88;;;17.42;100.00
11268;BME280;72685;47.474;9.416;2023-09-08T02:26:56;95723.88;;;17.34;100.00
11268;BME280;72685;47.474;9.416;2023-09-08T02:29:22;95724.88;;;17.42;100.00
11268;BME280;72685;47.474;9.416;2023-09-08T02:31:48;95728.53;;;17.50;100.00
11268;BME280;72685;47.474;9.416;2023-09-08T02:34:13;95732.13;;;17.54;100.00
11268;BME280;72685;47.474;9.416;2023-09-08T02:36:39;95727.06;;;17.52;100.00
11268;BME280;72685;47.474;9.416;2023-09-08T02:39:04;95732.47;;;17.52;100.00
11268;BME280;72685;47.474;9.416;2023-09-08T02:41:30;95724.34;;;17.52;100.00
11268;BME280;72685;47.474;9.416;2023-09-08T02:43:56;95725.84;;;17.50;100.00
11268;BME280;72685;47.474;9.416;2023-09-08T02:46:21;95735.75;;;17.45;100.00
11268;BME280;72685;47.474;9.416;2023-09-08T02:48:47;95732.19;;;17.41;100.00
11268;BME280;72685;47.474;9.416;2023-09-08T02:51:12;95735.78;;;17.33;100.00
11268;BME280;72685;47.474;9.416;2023-09-08T02:53:38;95730.38;;;17.33;100.00
11268;BME280;72685;47.474;9.416;2023-09-08T02:56:03;95735.78;;;17.33;100.00
11268;BME280;72685;47.474;9.416;2023-09-08T02:58:31;95733.66;;;17.27;100.00
11268;BME280;72685;47.474;9.416;2023-09-08T03:01:09;95736.25;;;17.23;100.00
11268;BME280;72685;47.474;9.416;2023-09-08T03:03:35;95733.47;;;17.20;100.00
11268;BME280;72685;47.474;9.416;2023-09-08T03:06:01;95738.41;;;17.18;100.00
11268;BME280;72685;47.474;9.416;2023-09-08T03:08:28;95746.19;;;17.19;100.00
11268;BME280;72685;47.474;9.416;2023-09-08T03:11:00;95738.19;;;17.23;100.00
11268;BME280;72685;47.474;9.416;2023-09-08T03:13:25;95748.78;;;17.16;100.00
11268;BME280;72685;47.474;9.416;2023-09-08T03:15:52;95744.94;;;17.17;100.00
11268;BME280;72685;47.474;9.416;2023-09-08T03:18:17;95744.59;;;17.18;100.00
11268;BME280;72685;47.474;9.416;2023-09-08T03:20:43;95740.53;;;17.24;100.00
11268;BME280;72685;47.474;9.416;2023-09-08T03:23:08;95733.13;;;17.21;100.00
11268;BME280;72685;47.474;9.416;2023-09-08T03:25:34;95744.03;;;17.25;99.96
11268;BME280;72685;47.474;9.416;2023-09-08T03:27:59;95741.44;;;17.28;99.46
11268;BME280;72685;47.474;9.416;2023-09-08T03:30:25;95738.97;;;17.23;100.00
11268;BME280;72685;47.474;9.416;2023-09-08T03:32:50;95738.78;;;17.16;100.00
11268;BME280;72685;47.474;9.416;2023-09-08T03:35:15;95742.16;;;17.13;100.00
11268;BME280;72685;47.474;9.416;2023-09-08T03:37:41;95746.53;;;17.18;99.82
11268;BME280;72685;47.474;9.416;2023-09-08T03:40:06;95740.69;;;17.16;99.49
11268;BME280;72685;47.474;9.416;2023-09-08T03:42:32;95741.00;;;17.14;99.94
11268;BME280;72685;47.474;9.416;2023-09-08T03:44:58;95743.50;;;17.07;99.95
11268;BME280;72685;47.474;9.416;2023-09-08T03:47:23;95740.91;;;17.11;100.00
11268;BME280;72685;47.474;9.416;2023-09-08T03:49:49;95737.63;;;17.17;99.61
11268;BME280;72685;47.474;9.416;2023-09-08T03:52:14;95742.81;;;17.22;99.57
11268;BME280;72685;47.474;9.416;2023-09-08T03:54:40;95732.00;;;17.22;99.36
11268;BME280;72685;47.474;9.416;2023-09-08T03:57:05;95735.56;;;17.26;98.95
11268;BME280;72685;47.474;9.416;2023-09-08T03:59:31;95744.03;;;17.25;98.39
11268;BME280;72685;47.474;9.416;2023-09-08T04:01:56;95745.50;;;17.22;98.54
11268;BME280;72685;47.474;9.416;2023-09-08T04:04:22;95739.53;;;17.17;98.34
11268;BME280;72685;47.474;9.416;2023-09-08T04:06:47;95742.91;;;17.14;98.18
11268;BME280;72685;47.474;9.416;2023-09-08T04:09:12;95751.59;;;17.07;98.29
11268;BME280;72685;47.474;9.416;2023-09-08T04:11:38;95744.97;;;17.05;98.59
11268;BME280;72685;47.474;9.416;2023-09-08T04:14:03;95746.88;;;17.04;98.34
11268;BME280;72685;47.474;9.416;2023-09-08T04:16:29;95748.00;;;17.03;98.32
11268;BME280;72685;47.474;9.416;2023-09-08T04:18:54;95750.72;;;17.03;98.32
11268;BME280;72685;47.474;9.416;2023-09-08T04:21:20;95747.88;;;17.12;97.97
11268;BME280;72685;47.474;9.416;2023-09-08T04:23:45;95743.03;;;17.17;97.74
11268;BME280;72685;47.474;9.416;2023-09-08T04:26:12;95741.22;;;17.21;97.60
11268;BME280;72685;47.474;9.416;2023-09-08T04:28:37;95739.88;;;17.15;98.07
11268;BME280;72685;47.474;9.416;2023-09-08T04:31:03;95737.41;;;17.22;97.71
11268;BME280;72685;47.474;9.416;2023-09-08T04:33:29;95733.91;;;17.22;97.16
11268;BME280;72685;47.474;9.416;2023-09-08T04:35:54;95743.59;;;17.23;97.18
11268;BME280;72685;47.474;9.416;2023-09-08T04:38:20;95749.22;;;17.18;97.45
11268;BME280;72685;47.474;9.416;2023-09-08T04:40:45;95751.03;;;17.14;97.62
11268;BME280;72685;47.474;9.416;2023-09-08T04:43:11;95749.78;;;17.11;97.47
11268;BME280;72685;47.474;9.416;2023-09-08T04:45:37;95757.88;;;17.11;97.67
11268;BME280;72685;47.474;9.416;2023-09-08T04:48:03;95753.97;;;17.09;97.46
11268;BME280;72685;47.474;9.416;2023-09-08T04:50:29;95764.22;;;17.03;97.51
11268;BME280;72685;47.474;9.416;2023-09-08T04:52:54;95760.38;;;17.04;97.77
11268;BME280;72685;47.474;9.416;2023-09-08T04:55:20;95760.47;;;17.08;97.36
11268;BME280;72685;47.474;9.416;2023-09-08T04:57:45;95770.41;;;17.04;97.34
11268;BME280;72685;47.474;9.416;2023-09-08T05:00:11;95763.56;;;17.58;97.14
11268;BME280;72685;47.474;9.416;2023-09-08T05:02:37;95764.78;;;17.48;95.15
11268;BME280;72685;47.474;9.416;2023-09-08T05:05:02;95773.41;;;17.26;95.55
11268;BME280;72685;47.474;9.416;2023-09-08T05:07:28;95781.41;;;17.11;96.37
11268;BME280;72685;47.474;9.416;2023-09-08T05:09:53;95778.41;;;17.00;96.11
11268;BME280;72685;47.474;9.416;2023-09-08T05:12:19;95775.22;;;16.98;96.44
11268;BME280;72685;47.474;9.416;2023-09-08T05:14:44;95773.75;;;16.88;96.76
11268;BME280;72685;47.474;9.416;2023-09-08T05:17:10;95783.78;;;16.88;97.21
11268;BME280;72685;47.474;9.416;2023-09-08T05:19:36;95782.34;;;16.90;97.19
11268;BME280;72685;47.474;9.416;2023-09-08T05:22:01;95775.47;;;16.93;97.09
11268;BME280;72685;47.474;9.416;2023-09-08T05:24:27;95781.31;;;16.95;97.04
11268;BME280;72685;47.474;9.416;2023-09-08T05:26:52;95780.19;;;16.96;97.23
11268;BME280;72685;47.474;9.416;2023-09-08T05:29:18;95776.94;;;17.03;97.03
11268;BME280;72685;47.474;9.416;2023-09-08T05:31:43;95784.47;;;17.09;96.89
11268;BME280;72685;47.474;9.416;2023-09-08T05:34:09;95779.16;;;17.13;97.16
11268;BME280;72685;47.474;9.416;2023-09-08T05:36:35;95783.22;;;17.19;97.04
11268;BME280;72685;47.474;9.416;2023-09-08T05:39:05;95776.78;;;17.23;96.77
11268;BME280;72685;47.474;9.416;2023-09-08T05:41:31;95781.38;;;17.35;96.14
11268;BME280;72685;47.474;9.416;2023-09-08T05:43:57;95783.31;;;17.34;97.02
11268;BME280;72685;47.474;9.416;2023-09-08T05:46:23;95783.16;;;17.43;96.62
11268;BME280;72685;47.474;9.416;2023-09-08T05:48:48;95790.47;;;17.55;96.06
11268;BME280;72685;47.474;9.416;2023-09-08T05:51:14;95784.69;;;17.68;95.86
11268;BME280;72685;47.474;9.416;2023-09-08T05:53:40;95788.84;;;17.78;96.31
11268;BME280;72685;47.474;9.416;2023-09-08T05:56:06;95795.25;;;17.85;95.91
11268;BME280;72685;47.474;9.416;2023-09-08T05:58:32;95792.38;;;17.94;95.52
11268;BME280;72685;47.474;9.416;2023-09-08T06:01:00;95795.81;;;18.07;94.56
11268;BME280;72685;47.474;9.416;2023-09-08T06:03:25;95802.38;;;18.06;91.44
11268;BME280;72685;47.474;9.416;2023-09-08T06:05:51;95797.25;;;18.16;91.53
11268;BME280;72685;47.474;9.416;2023-09-08T06:08:16;95790.28;;;18.15;90.69
11268;BME280;72685;47.474;9.416;2023-09-08T06:10:42;95798.72;;;18.14;91.23
11268;BME280;72685;47.474;9.416;2023-09-08T06:13:07;95803.13;;;18.18;91.54
11268;BME280;72685;47.474;9.416;2023-09-08T06:15:33;95802.25;;;18.30;91.63
11268;BME280;72685;47.474;9.416;2023-09-08T06:17:58;95798.28;;;18.39;89.90
11268;BME280;72685;47.474;9.416;2023-09-08T06:20:23;95801.38;;;18.54;89.92
11268;BME280;72685;47.474;9.416;2023-09-08T06:22:50;95801.22;;;18.62;89.91
11268;BME280;72685;47.474;9.416;2023-09-08T06:25:15;95798.84;;;18.61;88.36
11268;BME280;72685;47.474;9.416;2023-09-08T06:27:41;95803.03;;;18.74;88.84
11268;BME280;72685;47.474;9.416;2023-09-08T06:30:07;95802.44;;;18.80;88.94
11268;BME280;72685;47.474;9.416;2023-09-08T06:32:32;95803.31;;;18.84;87.77
11268;BME280;72685;47.474;9.416;2023-09-08T06:34:58;95809.94;;;18.87;88.80
11268;BME280;72685;47.474;9.416;2023-09-08T06:37:23;95803.50;;;18.91;88.49
11268;BME280;72685;47.474;9.416;2023-09-08T06:39:48;95803.91;;;18.93;86.95
11268;BME280;72685;47.474;9.416;2023-09-08T06:42:14;95799.91;;;19.03;86.84
11268;BME280;72685;47.474;9.416;2023-09-08T06:44:39;95802.97;;;19.01;87.00
11268;BME280;72685;47.474;9.416;2023-09-08T06:47:04;95801.28;;;19.13;86.36
11268;BME280;72685;47.474;9.416;2023-09-08T06:49:32;95800.75;;;19.23;84.67
11268;BME280;72685;47.474;9.416;2023-09-08T06:51:57;95811.59;;;19.23;84.38
11268;BME280;72685;47.474;9.416;2023-09-08T06:54:23;95811.59;;;19.23;85.05
11268;BME280;72685;47.474;9.416;2023-09-08T06:56:48;95805.19;;;19.31;85.85
11268;BME280;72685;47.474;9.416;2023-09-08T06:59:14;95798.81;;;19.23;84.27
11268;BME280;72685;47.474;9.416;2023-09-08T07:01:39;95806.75;;;19.32;84.38
11268;BME280;72685;47.474;9.416;2023-09-08T07:04:05;95803.13;;;19.40;84.03
11268;BME280;72685;47.474;9.416;2023-09-08T07:06:30;95810.59;;;19.46;83.45
11268;BME280;72685;47.474;9.416;2023-09-08T07:08:55;95805.25;;;19.50;83.45
11268;BME280;72685;47.474;9.416;2023-09-08T07:11:21;95809.38;;;19.44;83.76
11268;BME280;72685;47.474;9.416;2023-09-08T07:13:46;95805.16;;;19.62;82.45
11268;BME280;72685;47.474;9.416;2023-09-08T07:16:12;95814.50;;;19.65;82.52
11268;BME280;72685;47.474;9.416;2023-09-08T07:18:37;95808.78;;;19.70;82.98
11268;BME280;72685;47.474;9.416;2023-09-08T07:21:03;95808.16;;;19.76;82.30
11268;BME280;72685;47.474;9.416;2023-09-08T07:23:29;95805.75;;;19.90;81.82
11268;BME280;72685;47.474;9.416;2023-09-08T07:25:54;95803.94;;;19.98;81.83
11268;BME280;72685;47.474;9.416;2023-09-08T07:28:19;95798.53;;;19.98;81.89
11268;BME280;72685;47.474;9.416;2023-09-08T07:30:45;95803.53;;;20.15;80.68
11268;BME280;72685;47.474;9.416;2023-09-08T07:33:10;95816.09;;;20.42;80.44
11268;BME280;72685;47.474;9.416;2023-09-08T07:35:39;95812.63;;;20.65;79.94
11268;BME280;72685;47.474;9.416;2023-09-08T07:38:06;95804.38;;;20.80;79.83
11268;BME280;72685;47.474;9.416;2023-09-08T07:40:35;95808.22;;;20.79;79.03
11268;BME280;72685;47.474;9.416;2023-09-08T07:43:00;95818.13;;;20.68;79.35
11268;BME280;72685;47.474;9.416;2023-09-08T07:45:26;95810.16;;;20.79;78.58
11268;BME280;72685;47.474;9.416;2023-09-08T07:47:51;95814.88;;;20.82;79.89
11268;BME280;72685;47.474;9.416;2023-09-08T07:50:22;95821.81;;;21.02;79.76
11268;BME280;72685;47.474;9.416;2023-09-08T07:52:49;95815.53;;;20.98;78.92
11268;BME280;72685;47.474;9.416;2023-09-08T07:55:15;95813.22;;;21.00;78.89
11268;BME280;72685;47.474;9.416;2023-09-08T07:57:45;95817.28;;;21.09;78.54
11268;BME280;72685;47.474;9.416;2023-09-08T08:00:12;95818.19;;;21.17;78.81
11268;BME280;72685;47.474;9.416;2023-09-08T08:02:48;95814.38;;;20.99;78.50
11268;BME280;72685;47.474;9.416;2023-09-08T08:05:14;95820.97;;;20.98;78.54
11268;BME280;72685;47.474;9.416;2023-09-08T08:07:42;95819.00;;;21.18;78.62
11268;BME280;72685;47.474;9.416;2023-09-08T08:10:09;95810.50;;;21.23;77.34
11268;BME280;72685;47.474;9.416;2023-09-08T08:12:35;95813.72;;;21.28;78.00
11268;BME280;72685;47.474;9.416;2023-09-08T08:15:01;95812.66;;;21.62;76.55
11268;BME280;72685;47.474;9.416;2023-09-08T08:17:26;95813.13;;;21.68;76.12
11268;BME280;72685;47.474;9.416;2023-09-08T08:19:54;95815.25;;;21.82;74.88
11268;BME280;72685;47.474;9.416;2023-09-08T08:22:19;95812.38;;;21.71;75.38
11268;BME280;72685;47.474;9.416;2023-09-08T08:24:45;95807.56;;;21.87;75.76
11268;BME280;72685;47.474;9.416;2023-09-08T08:27:10;95809.03;;;21.81;75.29
11268;BME280;72685;47.474;9.416;2023-09-08T08:29:36;95818.16;;;21.66;76.22
11268;BME280;72685;47.474;9.416;2023-09-08T08:32:01;95813.47;;;21.67;76.09
11268;BME280;72685;47.474;9.416;2023-09-08T08:34:27;95813.47;;;21.67;76.65
11268;BME280;72685;47.474;9.416;2023-09-08T08:36:53;95814.88;;;21.53;76.25
11268;BME280;72685;47.474;9.416;2023-09-08T08:39:18;95811.41;;;21.86;76.72
11268;BME280;72685;47.474;9.416;2023-09-08T08:41:44;95816.50;;;21.88;75.85
11268;BME280;72685;47.474;9.416;2023-09-08T08:44:09;95809.28;;;21.99;75.93
11268;BME280;72685;47.474;9.416;2023-09-08T08:46:38;95810.66;;;22.15;76.00
11268;BME280;72685;47.474;9.416;2023-09-08T08:49:05;95805.75;;;22.28;74.70
11268;BME280;72685;47.474;9.416;2023-09-08T08:51:32;95809.22;;;22.25;76.33
11268;BME280;72685;47.474;9.416;2023-09-08T08:53:58;95806.84;;;22.57;74.44
11268;BME280;72685;47.474;9.416;2023-09-08T08:56:25;95796.00;;;22.64;73.50
11268;BME280;72685;47.474;9.416;2023-09-08T08:58:52;95798.19;;;22.48;73.41
11268;BME280;72685;47.474;9.416;2023-09-08T09:01:17;95801.81;;;22.59;73.60
11268;BME280;72685;47.474;9.416;2023-09-08T09:03:46;95803.56;;;22.78;73.91
11268;BME280;72685;47.474;9.416;2023-09-08T09:06:14;95801.25;;;22.46;74.29
11268;BME280;72685;47.474;9.416;2023-09-08T09:08:42;95793.09;;;22.83;74.61
11268;BME280;72685;47.474;9.416;2023-09-08T09:11:08;95799.41;;;22.91;73.19
11268;BME280;72685;47.474;9.416;2023-09-08T09:13:34;95802.31;;;23.12;72.19
11268;BME280;72685;47.474;9.416;2023-09-08T09:16:00;95802.63;;;23.03;72.68
11268;BME280;72685;47.474;9.416;2023-09-08T09:18:29;95793.91;;;23.35;72.98
11268;BME280;72685;47.474;9.416;2023-09-08T09:20:58;95799.91;;;23.51;72.06
11268;BME280;72685;47.474;9.416;2023-09-08T09:23:34;95794.84;;;23.53;72.11
11268;BME280;72685;47.474;9.416;2023-09-08T09:26:02;95797.22;;;23.61;72.24
11268;BME280;72685;47.474;9.416;2023-09-08T09:28:29;95790.25;;;23.64;71.57
11268;BME280;72685;47.474;9.416;2023-09-08T09:30:55;95790.69;;;23.77;71.42
11268;BME280;72685;47.474;9.416;2023-09-08T09:33:21;95783.09;;;23.49;72.27
11268;BME280;72685;47.474;9.416;2023-09-08T09:35:48;95789.00;;;23.54;72.66
11268;BME280;72685;47.474;9.416;2023-09-08T09:38:15;95783.81;;;24.07;72.10
11268;BME280;72685;47.474;9.416;2023-09-08T09:40:40;95790.81;;;24.05;69.42
11268;BME280;72685;47.474;9.416;2023-09-08T09:43:06;95786.56;;;24.11;70.83
11268;BME280;72685;47.474;9.416;2023-09-08T09:45:36;95792.09;;;24.29;69.72
11268;BME280;72685;47.474;9.416;2023-09-08T09:48:03;95783.97;;;24.43;69.51
11268;BME280;72685;47.474;9.416;2023-09-08T09:50:30;95790.66;;;24.77;70.07
11268;BME280;72685;47.474;9.416;2023-09-08T09:53:07;95793.38;;;24.66;69.06
11268;BME280;72685;47.474;9.416;2023-09-08T09:55:33;95790.28;;;24.89;68.00
11268;BME280;72685;47.474;9.416;2023-09-08T09:58:02;95795.66;;;24.40;68.54
11268;BME280;72685;47.474;9.416;2023-09-08T10:00:29;95787.59;;;24.82;68.56
11268;BME280;72685;47.474;9.416;2023-09-08T10:02:56;95791.50;;;24.88;67.79
11268;BME280;72685;47.474;9.416;2023-09-08T10:05:24;95790.66;;;24.73;67.98
11268;BME280;72685;47.474;9.416;2023-09-08T10:07:50;95793.06;;;25.03;68.33
11268;BME280;72685;47.474;9.416;2023-09-08T10:10:16;95789.94;;;25.22;67.43
11268;BME280;72685;47.474;9.416;2023-09-08T10:12:49;95787.19;;;25.30;67.95
11268;BME280;72685;47.474;9.416;2023-09-08T10:15:20;95782.44;;;25.76;67.37
11268;BME280;72685;47.474;9.416;2023-09-08T10:17:47;95781.63;;;25.93;64.57
11268;BME280;72685;47.474;9.416;2023-09-08T10:20:16;95787.97;;;25.55;65.90
11268;BME280;72685;47.474;9.416;2023-09-08T10:22:42;95778.19;;;25.40;66.93
11268;BME280;72685;47.474;9.416;2023-09-08T10:25:09;95775.47;;;25.29;67.55
11268;BME280;72685;47.474;9.416;2023-09-08T10:27:37;95778.53;;;25.70;67.25
11268;BME280;72685;47.474;9.416;2023-09-08T10:30:05;95775.72;;;25.91;65.17
11268;BME280;72685;47.474;9.416;2023-09-08T10:32:32;95768.25;;;26.09;65.75
11268;BME280;72685;47.474;9.416;2023-09-08T10:34:59;95769.88;;;25.96;65.19
11268;BME280;72685;47.474;9.416;2023-09-08T10:37:26;95775.44;;;25.43;65.15
11268;BME280;72685;47.474;9.416;2023-09-08T10:39:55;95766.66;;;26.12;64.46
11268;BME280;72685;47.474;9.416;2023-09-08T10:42:21;95766.25;;;26.17;64.23
11268;BME280;72685;47.474;9.416;2023-09-08T10:47:24;95770.66;;;26.73;63.51
11268;BME280;72685;47.474;9.416;2023-09-08T10:49:51;95767.25;;;26.55;63.31
11268;BME280;72685;47.474;9.416;2023-09-08T10:52:21;95768.91;;;26.38;62.77
11268;BME280;72685;47.474;9.416;2023-09-08T10:54:54;95763.34;;;26.52;62.77
11268;BME280;72685;47.474;9.416;2023-09-08T10:57:22;95770.03;;;26.48;63.36
11268;BME280;72685;47.474;9.416;2023-09-08T11:02:36;95765.03;;;26.36;63.31
11268;BME280;72685;47.474;9.416;2023-09-08T11:05:06;95757.44;;;26.57;64.45
11268;BME280;72685;47.474;9.416;2023-09-08T11:07:32;95757.63;;;26.91;62.31
11268;BME280;72685;47.474;9.416;2023-09-08T11:10:01;95759.88;;;27.03;63.49
11268;BME280;72685;47.474;9.416;2023-09-08T11:12:28;95755.63;;;26.95;61.71
11268;BME280;72685;47.474;9.416;2023-09-08T11:14:54;95759.53;;;27.42;61.11
11268;BME280;72685;47.474;9.416;2023-09-08T11:17:19;95745.34;;;27.06;61.75
11268;BME280;72685;47.474;9.416;2023-09-08T11:19:46;95746.97;;;27.45;60.10
11268;BME280;72685;47.474;9.416;2023-09-08T11:22:13;95745.84;;;27.39;61.03
11268;BME280;72685;47.474;9.416;2023-09-08T11:24:38;95748.88;;;27.51;62.05
11268;BME280;72685;47.474;9.416;2023-09-08T11:27:04;95750.13;;;27.47;61.70
11268;BME280;72685;47.474;9.416;2023-09-08T11:29:30;95754.44;;;27.81;59.83
11268;BME280;72685;47.474;9.416;2023-09-08T11:31:58;95750.31;;;28.00;59.91
11268;BME280;72685;47.474;9.416;2023-09-08T11:34:23;95742.97;;;28.24;58.54
11268;BME280;72685;47.474;9.416;2023-09-08T11:36:49;95748.34;;;28.31;57.48
11268;BME280;72685;47.474;9.416;2023-09-08T11:39:14;95746.59;;;28.17;58.57
11268;BME280;72685;47.474;9.416;2023-09-08T11:41:40;95748.13;;;28.49;58.34
11268;BME280;72685;47.474;9.416;2023-09-08T11:44:06;95742.72;;;28.42;57.84
11268;BME280;72685;47.474;9.416;2023-09-08T11:46:31;95740.63;;;28.22;59.09
11268;BME280;72685;47.474;9.416;2023-09-08T11:48:57;95738.34;;;28.17;57.73
11268;BME280;72685;47.474;9.416;2023-09-08T11:51:23;95739.75;;;28.29;58.17
11268;BME280;72685;47.474;9.416;2023-09-08T11:53:49;95740.63;;;28.22;57.68
11268;BME280;72685;47.474;9.416;2023-09-08T11:56:15;95740.66;;;28.19;59.15
11268;BME280;72685;47.474;9.416;2023-09-08T11:58:41;95735.25;;;27.78;58.59
11268;BME280;72685;47.474;9.416;2023-09-08T12:01:07;95736.97;;;27.99;59.79
11268;BME280;72685;47.474;9.416;2023-09-08T12:03:33;95739.09;;;28.18;58.66
11268;BME280;72685;47.474;9.416;2023-09-08T12:05:58;95741.97;;;28.11;58.83
11268;BME280;72685;47.474;9.416;2023-09-08T12:08:25;95739.31;;;28.30;58.90
11268;BME280;72685;47.474;9.416;2023-09-08T12:10:53;95749.66;;;28.23;58.30
11268;BME280;72685;47.474;9.416;2023-09-08T12:13:25;95738.66;;;28.23;58.60
11268;BME280;72685;47.474;9.416;2023-09-08T12:15:50;95744.16;;;28.50;58.24
11268;BME280;72685;47.474;9.416;2023-09-08T12:18:16;95736.66;;;28.54;57.23
11268;BME280;72685;47.474;9.416;2023-09-08T12:20:42;95734.78;;;28.47;56.74
11268;BME280;72685;47.474;9.416;2023-09-08T12:25:50;95728.72;;;28.32;58.48
11268;BME280;72685;47.474;9.416;2023-09-08T12:28:18;95727.44;;;28.10;58.86
11268;BME280;72685;47.474;9.416;2023-09-08T12:30:44;95733.16;;;28.23;58.02
11268;BME280;72685;47.474;9.416;2023-09-08T12:33:10;95727.91;;;27.68;59.19
11268;BME280;72685;47.474;9.416;2023-09-08T12:35:36;95723.22;;;27.99;60.14
11268;BME280;72685;47.474;9.416;2023-09-08T12:38:03;95720.59;;;27.92;60.12
11268;BME280;72685;47.474;9.416;2023-09-08T12:40:33;95724.25;;;28.12;58.92
11268;BME280;72685;47.474;9.416;2023-09-08T12:42:59;95709.88;;;28.01;58.94
11268;BME280;72685;47.474;9.416;2023-09-08T12:45:25;95713.59;;;27.50;58.91
11268;BME280;72685;47.474;9.416;2023-09-08T12:47:51;95708.56;;;27.78;59.28
11268;BME280;72685;47.474;9.416;2023-09-08T12:50:17;95717.75;;;27.65;61.53
11268;BME280;72685;47.474;9.416;2023-09-08T12:52:42;95719.63;;;27.71;61.07
11268;BME280;72685;47.474;9.416;2023-09-08T12:55:08;95711.06;;;27.66;60.95
11268;BME280;72685;47.474;9.416;2023-09-08T12:57:35;95705.38;;;27.50;61.15
11268;BME280;72685;47.474;9.416;2023-09-08T13:00:01;95710.06;;;27.49;62.62
11268;BME280;72685;47.474;9.416;2023-09-08T13:02:26;95704.38;;;27.67;60.97
11268;BME280;72685;47.474;9.416;2023-09-08T13:04:52;95704.03;;;27.61;61.38